Aérodrome :
LOGIN :

S'inscrire | Disclaimer

   EN    FR    IT 

 










Légende :    VFR   VFR Marginal   IFR   IFR Intensif   IFR Très Intensif
Visi : 
Plafond : 
>= 8 km
>= 3000ft
5 à 8 km
1000 à 3000 ft
1500m à 5 km
500 à 1000 ft
800 à 1500m
200 à 500 ft
< 800m
< 200 ft
Symboles :   Orages  Brouillard  Fortes neiges  Fortes précipitations  Vent > 20 kt
SIGMETs :   Divers  Orages  Givrage  Turbulence  Onde Orograph.  Cendres Volcan.







- Altitude de l'aérodrome : 844 ft
- Code IATA : OSR


LKMT - Ostrava-Mosnov

DERNIER METAR :
  • 261130Z 25010KT 220V290 CAVOK 10/M03 Q1021 NOSIG

METARs EXPIRÉS :
  • 261100Z 26008KT 220V320 CAVOK 10/M02 Q1022 NOSIG
  • 261030Z 22007KT 170V290 9999 BKN049 09/M03 Q1022 NOSIG
  • 261000Z VRB05KT 9999 BKN049 08/M03 Q1022 NOSIG
  • 260930Z 29006KT 230V330 9999 BKN042 07/M04 Q1022 NOSIG
  • 260900Z 34006KT 300V010 9999 BKN039 07/M04 Q1023 NOSIG

TAF TAF LKMT
Valide du 26 à 12h jusqu'au 27 à 18h UTC


261100Z 2612/2718 29008KT 9999 SCT020 BKN040
TEMPO 2615/2701 29014G26KT 7000 SHRASN BKN014
BECMG 2701/2703 04003KT 5000 BR BKN016
PROB30
TEMPO 2703/2707 3500 BR BKN009
BECMG 2709/2712 9999 SCT040
Pas de NOTAMs connus pour ce terrain.



MET'MAP, la Météo Aéronautique d'un coup d'oeil ! - Copyright ORBIFLY Décembre 2007 - Disclaimer

ORBIFLY MET'MAP TEAM :

Programmation & Développement : Alexandra Zaïnal
Conception & Développement : Baudouin d'Aumeries
Co-Programmation & Développement : Marc-Olivier Méhu
Soutien technique & logistique : Manuel Goepfert

Contact : metmap@orbifly.com




SOURCES & CREDITS :

   NOAA